createdAt,value
2022-08-08T00:01:06.692Z,1.15
2022-08-08T00:03:58.864Z,1.50
2022-08-08T00:06:48.473Z,1.25
2022-08-08T00:09:17.244Z,1.13
2022-08-08T00:12:07.142Z,1.20
2022-08-08T00:15:17.515Z,1.15
2022-08-08T00:18:04.674Z,1.15
2022-08-08T00:20:40.765Z,1.50
2022-08-08T00:23:17.144Z,1.20
2022-08-08T00:25:51.254Z,1.23
2022-08-08T00:28:35.622Z,1.20
2022-08-08T00:32:28.966Z,1.33
2022-08-08T00:34:51.288Z,1.50
2022-08-08T00:37:48.015Z,1.10
2022-08-08T00:41:08.977Z,1.30
2022-08-08T00:43:46.026Z,1.30
2022-08-08T00:46:32.207Z,1.35
2022-08-08T00:49:37.545Z,1.38
2022-08-08T00:52:25.742Z,1.30
2022-08-08T00:55:08.866Z,1.30
2022-08-08T00:58:12.481Z,1.40
2022-08-08T01:01:06.901Z,1.42
2022-08-08T01:04:17.666Z,1.30
2022-08-08T01:07:06.230Z,1.30
2022-08-08T01:10:20.906Z,1.50
2022-08-08T01:13:15.359Z,1.40
2022-08-08T01:16:27.841Z,1.05
2022-08-08T01:18:56.027Z,1.38
2022-08-08T01:22:13.045Z,1.42
2022-08-08T01:25:08.206Z,1.40
2022-08-08T01:28:15.644Z,1.27
2022-08-08T01:32:06.678Z,1.75
2022-08-08T01:34:39.662Z,1.35
2022-08-08T01:37:51.204Z,1.40
2022-08-08T01:40:28.156Z,1.42
2022-08-08T01:43:23.933Z,1.50
2022-08-08T01:46:35.028Z,1.10
2022-08-08T01:49:23.463Z,1.42
2022-08-08T01:53:07.093Z,1.30
2022-08-08T01:56:29.673Z,1.60
2022-08-08T01:58:38.465Z,1.40
2022-08-08T02:01:59.881Z,1.52
2022-08-08T02:04:40.058Z,1.58
2022-08-08T02:07:41.408Z,1.27
2022-08-08T02:10:46.144Z,1.48
2022-08-08T02:13:52.675Z,1.40
2022-08-08T02:16:40.512Z,1.80
2022-08-08T02:20:08.280Z,1.40
2022-08-08T02:22:55.167Z,1.45
2022-08-08T02:25:48.361Z,1.50
2022-08-08T02:28:35.440Z,2.05
2022-08-08T02:31:43.575Z,1.70
2022-08-08T02:37:09.960Z,1.67
2022-08-08T02:40:28.129Z,1.90
2022-08-08T02:44:38.439Z,2.08
2022-08-08T02:46:58.061Z,1.88
2022-08-08T02:50:19.287Z,1.88
2022-08-08T02:53:08.275Z,1.90
2022-08-08T02:56:01.683Z,1.77
2022-08-08T02:59:17.238Z,1.95
2022-08-08T03:02:20.512Z,1.45
2022-08-08T03:05:32.813Z,1.60
2022-08-08T03:08:27.373Z,1.73
2022-08-08T03:11:31.811Z,1.50
2022-08-08T03:16:00.169Z,1.63
2022-08-08T03:17:39.459Z,1.30
2022-08-08T03:20:10.266Z,1.35
2022-08-08T03:22:56.243Z,1.73
2022-08-08T03:25:34.010Z,1.63
2022-08-08T03:28:10.351Z,1.40
2022-08-08T03:30:48.727Z,1.65
2022-08-08T03:33:55.283Z,1.50
2022-08-08T03:36:12.789Z,1.60
2022-08-08T03:38:54.151Z,1.77
2022-08-08T03:42:12.494Z,1.63
2022-08-08T03:44:20.521Z,1.27
2022-08-08T03:46:54.035Z,1.67
2022-08-08T03:50:00.613Z,1.77
2022-08-08T03:52:14.625Z,1.50
2022-08-08T03:55:02.465Z,1.88
2022-08-08T03:58:31.806Z,1.85
2022-08-08T04:00:26.223Z,1.67
2022-08-08T04:03:03.370Z,1.98
2022-08-08T04:05:35.060Z,1.80
2022-08-08T04:08:32.931Z,1.75
2022-08-08T04:11:11.233Z,1.63
2022-08-08T04:14:03.631Z,1.58
2022-08-08T04:16:38.996Z,1.70
2022-08-08T04:19:23.613Z,1.70
2022-08-08T04:21:56.010Z,1.85
2022-08-08T04:24:28.462Z,1.73
2022-08-08T04:26:59.135Z,1.75
2022-08-08T04:29:36.608Z,2.10
2022-08-08T04:32:07.675Z,2.22
2022-08-08T04:34:42.973Z,2.38
2022-08-08T04:37:26.274Z,2.53
2022-08-08T04:40:05.259Z,2.58
2022-08-08T04:42:37.449Z,2.75
2022-08-08T04:45:14.574Z,2.40
2022-08-08T04:47:46.143Z,2.50
2022-08-08T04:50:24.300Z,2.00
2022-08-08T04:53:00.927Z,1.70
2022-08-08T04:55:47.434Z,1.90
2022-08-08T04:58:21.781Z,1.80
2022-08-08T05:00:50.269Z,1.77
2022-08-08T05:04:07.892Z,1.92
2022-08-08T05:06:13.061Z,1.73
2022-08-08T05:08:43.919Z,1.98
2022-08-08T05:11:22.768Z,2.00
2022-08-08T05:14:00.720Z,2.08
2022-08-08T05:16:51.254Z,1.70
2022-08-08T05:20:11.098Z,2.00
2022-08-08T05:22:10.800Z,1.80
2022-08-08T05:24:48.662Z,2.15
2022-08-08T05:27:17.756Z,1.80
2022-08-08T05:29:45.890Z,1.65
2022-08-08T05:32:24.808Z,2.10
2022-08-08T05:35:01.849Z,1.92
2022-08-08T05:37:52.872Z,2.20
2022-08-08T05:40:53.294Z,1.80
2022-08-08T05:43:39.787Z,1.65
2022-08-08T05:46:20.424Z,2.28
2022-08-08T05:48:52.267Z,2.00
2022-08-08T05:51:25.077Z,2.30
2022-08-08T05:54:26.839Z,1.80
2022-08-08T05:56:47.014Z,1.98
2022-08-08T05:59:53.520Z,1.95
2022-08-08T06:02:41.004Z,1.95
2022-08-08T06:05:34.046Z,1.95
2022-08-08T06:08:09.990Z,1.95
2022-08-08T06:10:49.143Z,1.92
2022-08-08T06:13:49.590Z,2.10
2022-08-08T06:16:27.243Z,1.90
2022-08-08T06:19:16.286Z,2.20
2022-08-08T06:21:57.505Z,2.00
2022-08-08T06:24:40.091Z,2.10
2022-08-08T06:27:17.350Z,2.15
2022-08-08T06:30:11.947Z,1.88
2022-08-08T06:32:54.861Z,2.22
2022-08-08T06:36:04.981Z,2.20
2022-08-08T06:38:19.556Z,2.03
2022-08-08T06:40:53.877Z,1.95
2022-08-08T06:43:34.352Z,2.58
2022-08-08T06:46:30.009Z,2.30
2022-08-08T06:49:00.868Z,2.97
2022-08-08T06:51:46.692Z,2.42
2022-08-08T06:54:22.949Z,2.03
2022-08-08T06:56:52.719Z,2.78
2022-08-08T06:59:21.441Z,2.10
2022-08-08T07:02:26.338Z,2.65
2022-08-08T07:05:02.593Z,2.33
2022-08-08T07:07:38.039Z,2.30
2022-08-08T07:10:12.570Z,2.20
2022-08-08T07:12:47.592Z,2.58
2022-08-08T07:16:01.198Z,2.90
2022-08-08T07:18:35.156Z,2.60
2022-08-08T07:21:18.586Z,2.60
2022-08-08T07:23:57.452Z,2.30
2022-08-08T07:26:35.400Z,2.03
2022-08-08T07:29:07.975Z,2.80
2022-08-08T07:31:40.325Z,2.60
2022-08-08T07:34:10.844Z,2.40
2022-08-08T07:36:50.656Z,2.63
2022-08-08T07:39:29.670Z,2.63
2022-08-08T07:42:13.613Z,2.47
2022-08-08T07:44:48.384Z,2.53
2022-08-08T07:47:29.162Z,2.70
2022-08-08T07:50:07.581Z,2.92
2022-08-08T07:52:36.737Z,2.83
2022-08-08T07:55:22.090Z,2.58
2022-08-08T07:58:14.276Z,2.47
2022-08-08T08:00:53.638Z,2.53
2022-08-08T08:03:43.405Z,2.58
2022-08-08T08:06:18.215Z,2.50
2022-08-08T08:09:00.834Z,2.78
2022-08-08T08:11:51.758Z,2.78
2022-08-08T08:15:04.536Z,2.60
2022-08-08T08:17:49.016Z,2.65
2022-08-08T08:20:22.056Z,2.40
2022-08-08T08:22:58.509Z,2.23
2022-08-08T08:25:42.269Z,2.22
2022-08-08T08:28:21.519Z,2.20
2022-08-08T08:30:55.477Z,2.00
2022-08-08T08:33:26.446Z,2.10
2022-08-08T08:36:18.918Z,1.83
2022-08-08T08:38:49.580Z,2.08
2022-08-08T08:41:25.385Z,2.03
2022-08-08T08:44:13.941Z,2.08
2022-08-08T08:46:47.491Z,2.17
2022-08-08T08:49:20.163Z,1.75
2022-08-08T08:51:52.958Z,2.00
2022-08-08T08:54:25.267Z,2.17
2022-08-08T08:56:55.446Z,2.08
2022-08-08T08:59:58.687Z,1.90
2022-08-08T09:02:20.184Z,2.10
2022-08-08T09:04:50.227Z,1.52
2022-08-08T09:07:24.157Z,1.90
2022-08-08T09:10:17.044Z,1.52
2022-08-08T09:12:50.481Z,1.50
2022-08-08T09:15:41.352Z,1.48
2022-08-08T09:18:07.329Z,1.63
2022-08-08T09:22:01.644Z,1.35
2022-08-08T09:23:33.472Z,1.50
2022-08-08T09:26:21.291Z,1.52
2022-08-08T09:28:50.558Z,1.50
2022-08-08T09:31:57.127Z,1.50
2022-08-08T09:34:35.120Z,1.45
2022-08-08T09:37:57.224Z,1.60
2022-08-08T09:40:12.025Z,1.58
2022-08-08T09:42:51.524Z,1.80
2022-08-08T09:45:54.909Z,1.40
2022-08-08T09:48:22.017Z,1.10
2022-08-08T09:50:56.357Z,1.40
2022-08-08T09:53:54.377Z,1.40
2022-08-08T09:56:25.126Z,1.58
2022-08-08T09:59:19.957Z,1.20
2022-08-08T10:01:59.972Z,1.60
2022-08-08T10:04:38.488Z,1.40
2022-08-08T10:07:15.480Z,1.38
2022-08-08T10:09:59.862Z,1.23
2022-08-08T10:12:52.742Z,1.17
2022-08-08T10:15:24.309Z,1.15
2022-08-08T10:18:05.573Z,1.30
2022-08-08T10:20:58.082Z,1.33
2022-08-08T10:23:43.287Z,1.23
2022-08-08T10:26:52.106Z,1.30
2022-08-08T10:29:23.211Z,1.00
2022-08-08T10:32:16.422Z,1.17
2022-08-08T10:34:58.623Z,1.10
2022-08-08T10:37:34.739Z,1.25
2022-08-08T10:40:16.960Z,1.40
2022-08-08T10:42:45.656Z,1.38
2022-08-08T10:45:15.969Z,1.50
2022-08-08T10:47:48.591Z,1.20
2022-08-08T10:50:31.083Z,1.25
2022-08-08T10:53:03.508Z,1.27
2022-08-08T10:55:39.997Z,1.02
2022-08-08T10:58:10.257Z,1.10
2022-08-08T11:00:52.650Z,1.08
2022-08-08T11:04:00.583Z,1.33
2022-08-08T11:06:36.063Z,1.13
2022-08-08T11:09:19.986Z,1.10
2022-08-08T11:12:06.347Z,1.30
2022-08-08T11:14:51.729Z,1.00
2022-08-08T11:18:00.090Z,1.20
2022-08-08T11:20:18.152Z,1.60
2022-08-08T11:22:51.707Z,1.15
2022-08-08T11:25:53.482Z,1.23
2022-08-08T11:28:13.289Z,1.20
2022-08-08T11:30:49.893Z,1.30
2022-08-08T11:33:23.118Z,1.00
2022-08-08T11:36:10.294Z,1.00
2022-08-08T11:38:55.153Z,1.40
2022-08-08T11:41:32.292Z,0.98
2022-08-08T11:44:01.101Z,1.10
2022-08-08T11:46:31.553Z,1.13
2022-08-08T11:49:04.957Z,1.10
2022-08-08T11:51:40.274Z,1.20
2022-08-08T11:54:31.092Z,0.98
2022-08-08T11:57:23.793Z,1.23
2022-08-08T12:00:05.715Z,1.20
2022-08-08T12:02:54.489Z,1.30
2022-08-08T12:05:33.637Z,1.30
2022-08-08T12:08:01.364Z,1.00
2022-08-08T12:10:30.707Z,1.15
2022-08-08T12:13:10.123Z,1.00
2022-08-08T12:18:20.711Z,1.00
2022-08-08T12:20:50.354Z,0.98
2022-08-08T12:23:43.376Z,1.10
2022-08-08T12:26:28.008Z,1.10
2022-08-08T12:29:25.817Z,1.00
2022-08-08T12:32:19.566Z,1.20
2022-08-08T12:34:52.972Z,0.93
2022-08-08T12:37:41.065Z,0.98
2022-08-08T12:40:24.010Z,0.95
2022-08-08T12:42:53.502Z,1.20
2022-08-08T12:45:59.157Z,1.15
2022-08-08T12:48:36.509Z,1.15
2022-08-08T12:51:10.995Z,1.20
2022-08-08T12:54:19.386Z,0.80
2022-08-08T12:56:52.886Z,0.98
2022-08-08T12:59:36.817Z,0.95
2022-08-08T13:02:42.262Z,1.00
2022-08-08T13:05:26.665Z,1.10
2022-08-08T13:08:16.783Z,1.10
2022-08-08T13:10:55.641Z,1.10
2022-08-08T13:15:56.227Z,0.90
2022-08-08T13:18:27.601Z,1.00
2022-08-08T13:20:56.239Z,1.10
2022-08-08T13:23:31.135Z,0.85
2022-08-08T13:26:14.371Z,1.10
2022-08-08T13:28:42.454Z,1.10
2022-08-08T13:31:16.517Z,1.13
2022-08-08T13:33:47.397Z,1.10
2022-08-08T13:36:18.138Z,0.93
2022-08-08T13:38:53.786Z,1.00
2022-08-08T13:41:22.485Z,1.08
2022-08-08T13:43:50.952Z,0.70
2022-08-08T13:46:26.595Z,0.93
2022-08-08T13:49:12.225Z,1.00
2022-08-08T13:51:57.889Z,0.85
2022-08-08T13:54:29.370Z,1.00
2022-08-08T13:57:12.352Z,1.38
2022-08-08T13:59:49.067Z,0.90
2022-08-08T14:02:32.966Z,1.05
2022-08-08T14:05:19.903Z,1.00
2022-08-08T14:07:52.253Z,0.90
2022-08-08T14:10:33.397Z,1.27
2022-08-08T14:13:30.563Z,0.70
2022-08-08T14:16:12.818Z,1.48
2022-08-08T14:18:55.541Z,1.27
2022-08-08T14:21:39.396Z,1.15
2022-08-08T14:24:08.869Z,0.90
2022-08-08T14:26:46.307Z,0.88
2022-08-08T14:29:26.852Z,1.15
2022-08-08T14:32:10.762Z,1.50
2022-08-08T14:34:42.777Z,0.90
2022-08-08T14:37:12.592Z,0.75
2022-08-08T14:39:50.304Z,0.65
2022-08-08T14:42:34.014Z,1.08
2022-08-08T14:45:10.037Z,0.90
2022-08-08T14:48:00.882Z,0.80
2022-08-08T14:50:37.962Z,2.20
2022-08-08T14:53:13.531Z,1.38
2022-08-08T14:55:45.888Z,0.80
2022-08-08T14:58:19.863Z,0.90
2022-08-08T15:00:48.748Z,0.93
2022-08-08T15:03:28.538Z,1.10
2022-08-08T15:11:09.423Z,1.00
2022-08-08T15:14:02.026Z,1.00
2022-08-08T15:16:28.126Z,0.98
2022-08-08T15:18:55.586Z,1.10
2022-08-08T15:21:22.642Z,0.82
2022-08-08T15:23:54.886Z,0.98
2022-08-08T15:26:25.561Z,1.10
2022-08-08T15:28:54.094Z,1.13
2022-08-08T15:31:48.932Z,1.42
2022-08-08T15:34:18.777Z,0.90
2022-08-08T15:37:03.279Z,1.20
2022-08-08T15:39:38.592Z,0.80
2022-08-08T15:42:13.098Z,1.00
2022-08-08T15:44:45.316Z,0.90
2022-08-08T15:47:15.986Z,1.33
2022-08-08T15:49:47.832Z,1.40
2022-08-08T15:54:52.195Z,1.20
2022-08-08T15:57:20.742Z,1.15
2022-08-08T16:00:25.344Z,0.95
2022-08-08T16:02:44.479Z,1.13
2022-08-08T16:05:18.825Z,0.98
2022-08-08T16:07:53.089Z,1.10
2022-08-08T16:13:10.360Z,1.20
2022-08-08T16:13:27.756Z,1.35
2022-08-08T16:16:03.327Z,0.90
2022-08-08T16:18:40.310Z,0.88
2022-08-08T16:21:26.661Z,0.98
2022-08-08T16:23:55.326Z,1.23
2022-08-08T16:26:34.440Z,1.50
2022-08-08T16:29:16.182Z,3.53
2022-08-08T16:31:49.046Z,1.25
2022-08-08T16:34:19.870Z,1.02
2022-08-08T16:36:50.249Z,1.10
2022-08-08T16:39:59.676Z,1.15
2022-08-08T16:42:06.991Z,1.15
2022-08-08T16:44:47.401Z,1.20
2022-08-08T16:47:40.006Z,1.25
2022-08-08T16:50:13.918Z,1.23
2022-08-08T16:55:22.957Z,4.22
2022-08-08T16:55:55.368Z,1.52
2022-08-08T16:58:26.662Z,1.55
2022-08-08T17:00:57.914Z,1.10
2022-08-08T17:03:58.865Z,1.13
2022-08-08T17:06:37.666Z,1.40
2022-08-08T17:09:00.270Z,1.30
2022-08-08T17:11:27.959Z,1.15
2022-08-08T17:14:01.060Z,1.10
2022-08-08T17:16:29.132Z,1.15
2022-08-08T17:18:58.402Z,1.30
2022-08-08T17:21:41.492Z,1.15
2022-08-08T17:24:22.032Z,1.48
2022-08-08T17:26:58.010Z,1.35
2022-08-08T17:29:27.437Z,0.90
2022-08-08T17:31:55.251Z,2.40
2022-08-08T17:34:53.241Z,2.13
2022-08-08T17:37:12.806Z,1.90
2022-08-08T17:40:04.163Z,1.60
2022-08-08T17:42:28.391Z,1.70
2022-08-08T17:44:57.628Z,3.45
2022-08-08T17:50:06.686Z,1.50
2022-08-08T17:52:35.374Z,1.30
2022-08-08T17:56:03.177Z,1.70
2022-08-08T17:57:52.980Z,1.10
2022-08-08T18:00:25.904Z,1.10
2022-08-08T18:03:09.105Z,1.13
2022-08-08T18:05:48.670Z,1.10
2022-08-08T18:08:38.312Z,1.00
2022-08-08T18:11:11.606Z,1.30
2022-08-08T18:13:41.431Z,1.20
2022-08-08T18:16:09.764Z,1.38
2022-08-08T18:18:42.454Z,1.20
2022-08-08T18:21:10.789Z,1.40
2022-08-08T18:23:55.547Z,1.00
2022-08-08T18:26:23.385Z,0.90
2022-08-08T18:28:55.575Z,1.48
2022-08-08T18:31:22.856Z,1.13
2022-08-08T18:34:12.248Z,0.95
2022-08-08T18:36:37.866Z,1.05
2022-08-08T18:39:06.254Z,0.98
2022-08-08T18:41:51.058Z,1.20
2022-08-08T18:44:20.375Z,1.00
2022-08-08T18:46:55.369Z,1.10
2022-08-08T18:49:32.522Z,1.10
2022-08-08T18:52:22.309Z,1.02
2022-08-08T18:54:59.141Z,1.05
2022-08-08T18:57:31.902Z,1.25
2022-08-08T19:00:10.705Z,1.10
2022-08-08T19:02:54.722Z,1.13
2022-08-08T19:05:30.675Z,1.30
2022-08-08T19:08:25.132Z,1.13
2022-08-08T19:10:58.369Z,1.30
2022-08-08T19:13:52.629Z,1.33
2022-08-08T19:16:19.307Z,1.13
2022-08-08T19:18:53.306Z,1.20
2022-08-08T19:21:30.431Z,1.20
2022-08-08T19:24:00.467Z,1.15
2022-08-08T19:26:30.093Z,1.10
2022-08-08T19:28:58.325Z,1.40
2022-08-08T19:31:31.501Z,1.20
2022-08-08T19:34:36.216Z,1.10
2022-08-08T19:36:59.095Z,1.20
2022-08-08T19:39:35.136Z,1.10
2022-08-08T19:42:06.631Z,1.10
2022-08-08T19:44:45.365Z,1.35
2022-08-08T19:47:14.431Z,1.20
2022-08-08T19:49:43.189Z,1.25
2022-08-08T19:52:13.337Z,1.33
2022-08-08T19:54:43.145Z,1.35
2022-08-08T19:59:42.115Z,1.23
2022-08-08T20:02:10.674Z,1.05
2022-08-08T20:04:38.553Z,1.25
2022-08-08T20:08:29.923Z,1.40
2022-08-08T20:10:00.045Z,1.48
2022-08-08T20:12:31.999Z,1.48
2022-08-08T20:15:14.967Z,1.50
2022-08-08T20:17:47.627Z,1.30
2022-08-08T20:20:19.106Z,1.65
2022-08-08T20:22:54.198Z,1.60
2022-08-08T20:25:24.631Z,1.98
2022-08-08T20:27:54.525Z,2.20
2022-08-08T20:30:39.007Z,2.00
2022-08-08T20:33:20.030Z,1.95
2022-08-08T20:35:58.109Z,1.73
2022-08-08T20:38:32.722Z,1.70
2022-08-08T20:41:17.057Z,1.65
2022-08-08T20:43:49.542Z,1.88
2022-08-08T20:46:21.064Z,1.40
2022-08-08T20:48:58.412Z,1.02
2022-08-08T20:51:31.664Z,1.30
2022-08-08T20:54:04.220Z,1.30
2022-08-08T20:57:17.135Z,1.13
2022-08-08T20:59:31.252Z,1.42
2022-08-08T21:02:07.424Z,1.30
2022-08-08T21:04:36.774Z,1.40
2022-08-08T21:07:13.190Z,1.50
2022-08-08T21:10:02.054Z,1.13
2022-08-08T21:12:34.553Z,1.30
2022-08-08T21:15:07.385Z,1.55
2022-08-08T21:17:37.065Z,1.27
2022-08-08T21:20:05.041Z,1.25
2022-08-08T21:22:32.175Z,1.58
2022-08-08T21:24:59.259Z,1.35
2022-08-08T21:27:48.481Z,1.40
2022-08-08T21:32:52.037Z,1.50
2022-08-08T21:36:16.280Z,1.25
2022-08-08T21:38:16.794Z,1.08
2022-08-08T21:40:56.509Z,1.30
2022-08-08T21:43:34.303Z,1.40
2022-08-08T21:48:07.950Z,1.33
2022-08-08T21:49:00.683Z,1.25
2022-08-08T21:54:18.340Z,1.30
2022-08-08T21:54:52.010Z,1.42
2022-08-08T21:57:10.106Z,1.50
2022-08-08T22:00:01.313Z,1.50
2022-08-08T22:02:25.224Z,1.45
2022-08-08T22:04:58.922Z,1.40
2022-08-08T22:07:40.190Z,1.48
2022-08-08T22:10:18.470Z,1.42
2022-08-08T22:13:18.385Z,1.60
2022-08-08T22:20:12.058Z,1.40
2022-08-08T22:22:38.151Z,1.10
2022-08-08T22:25:12.416Z,1.13
2022-08-08T22:28:04.118Z,1.40
2022-08-08T22:30:33.517Z,1.42
2022-08-08T22:33:01.775Z,1.80
2022-08-08T22:36:05.453Z,1.85
2022-08-08T22:38:17.438Z,1.48
2022-08-08T22:40:45.236Z,1.60
2022-08-08T22:43:17.396Z,1.50
2022-08-08T22:45:46.648Z,1.45
2022-08-08T22:48:21.649Z,1.50
2022-08-08T22:50:48.985Z,1.80
2022-08-08T22:54:31.522Z,1.55
2022-08-08T22:56:03.961Z,1.77
2022-08-08T22:58:34.180Z,1.40
2022-08-08T23:02:00.496Z,1.70
2022-08-08T23:03:54.241Z,1.40
2022-08-08T23:06:26.789Z,1.40
2022-08-08T23:08:58.890Z,1.35
2022-08-08T23:11:31.269Z,1.35
2022-08-08T23:14:21.167Z,1.47
2022-08-08T23:16:54.723Z,1.65
2022-08-08T23:19:26.049Z,1.60
2022-08-08T23:21:53.096Z,1.45
2022-08-08T23:24:23.119Z,1.70
2022-08-08T23:26:55.484Z,1.95
2022-08-08T23:29:25.348Z,1.70
2022-08-08T23:31:53.077Z,1.80
2022-08-08T23:34:21.229Z,1.80
2022-08-08T23:41:24.440Z,1.52
2022-08-08T23:43:56.134Z,1.60
2022-08-08T23:49:04.914Z,2.65
2022-08-08T23:49:18.472Z,1.50
2022-08-08T23:52:06.730Z,2.03
2022-08-08T23:54:43.555Z,1.83
2022-08-08T23:57:26.220Z,1.83
